createdAt,value
2022-08-05T00:04:34.683Z,25.13
2022-08-05T00:09:42.471Z,25.14
2022-08-05T00:14:51.892Z,25.21
2022-08-05T00:20:02.634Z,25.13
2022-08-05T00:25:12.764Z,25.15
2022-08-05T00:30:17.799Z,24.94
2022-08-05T00:35:22.781Z,24.89
2022-08-05T00:40:51.969Z,24.86
2022-08-05T00:45:58.397Z,24.86
2022-08-05T00:51:08.961Z,24.80
2022-08-05T00:56:31.269Z,24.85
2022-08-05T01:01:48.539Z,24.91
2022-08-05T01:06:55.065Z,24.99
2022-08-05T01:12:17.843Z,24.88
2022-08-05T01:17:32.427Z,24.71
2022-08-05T01:22:57.670Z,24.49
2022-08-05T01:28:18.401Z,24.49
2022-08-05T01:33:35.160Z,24.41
2022-08-05T01:38:41.256Z,24.32
2022-08-05T01:43:51.370Z,24.20
2022-08-05T01:48:59.664Z,24.00
2022-08-05T01:54:07.210Z,24.10
2022-08-05T01:59:22.961Z,23.97
2022-08-05T02:04:30.211Z,24.05
2022-08-05T02:09:35.282Z,23.94
2022-08-05T02:14:47.935Z,23.98
2022-08-05T02:20:01.354Z,23.91
2022-08-05T02:25:12.655Z,23.74
2022-08-05T02:30:21.996Z,23.77
2022-08-05T02:35:37.443Z,23.70
2022-08-05T02:40:46.339Z,23.62
2022-08-05T02:45:55.984Z,23.69
2022-08-05T02:51:07.003Z,23.66
2022-08-05T02:56:15.942Z,23.67
2022-08-05T03:01:28.006Z,23.79
2022-08-05T03:06:55.331Z,23.74
2022-08-05T03:11:59.020Z,23.60
2022-08-05T03:17:09.377Z,23.52
2022-08-05T03:22:16.656Z,23.47
2022-08-05T03:27:29.601Z,23.51
2022-08-05T03:32:48.372Z,23.59
2022-08-05T03:37:53.574Z,23.53
2022-08-05T03:42:58.644Z,23.50
2022-08-05T03:48:06.516Z,23.55
2022-08-05T03:55:52.519Z,23.49
2022-08-05T03:58:46.415Z,23.68
2022-08-05T04:04:09.877Z,24.08
2022-08-05T04:09:26.449Z,23.69
2022-08-05T04:14:34.331Z,24.36
2022-08-05T04:19:55.511Z,24.41
2022-08-05T04:25:04.067Z,24.60
2022-08-05T04:30:10.959Z,24.46
2022-08-05T04:35:21.538Z,25.04
2022-08-05T04:40:28.169Z,25.13
2022-08-05T04:45:48.553Z,25.56
2022-08-05T04:51:03.813Z,27.09
2022-08-05T04:56:34.280Z,27.88
2022-08-05T05:02:06.711Z,26.72
2022-08-05T05:07:09.389Z,27.11
2022-08-05T05:12:14.873Z,28.77
2022-08-05T05:17:23.879Z,28.99
2022-08-05T05:22:31.895Z,28.07
2022-08-05T05:27:44.525Z,28.48
2022-08-05T05:32:51.114Z,28.73
2022-08-05T05:38:02.410Z,28.22
2022-08-05T05:43:08.716Z,28.31
2022-08-05T05:48:16.015Z,28.88
2022-08-05T05:53:23.924Z,28.99
2022-08-05T05:58:32.591Z,29.16
2022-08-05T06:03:54.103Z,29.49
2022-08-05T06:09:05.223Z,29.98
2022-08-05T06:14:10.514Z,32.18
2022-08-05T06:19:33.013Z,31.77
2022-08-05T06:24:48.327Z,33.27
2022-08-05T06:30:04.314Z,35.43
2022-08-05T06:35:15.403Z,35.84
2022-08-05T06:40:32.441Z,36.42
2022-08-05T06:46:02.872Z,35.99
2022-08-05T06:51:02.900Z,37.02
2022-08-05T06:56:26.509Z,35.70
2022-08-05T07:01:32.931Z,37.60
2022-08-05T07:06:40.173Z,36.84
2022-08-05T07:11:51.548Z,34.29
2022-08-05T07:17:56.618Z,35.34
2022-08-05T07:22:27.727Z,35.30
2022-08-05T07:28:01.460Z,35.79
2022-08-05T07:33:05.359Z,34.99
2022-08-05T07:38:32.739Z,33.16
2022-08-05T07:43:42.069Z,32.59
2022-08-05T07:49:03.505Z,30.68
2022-08-05T07:54:12.741Z,31.34
2022-08-05T07:59:23.272Z,31.53
2022-08-05T08:04:45.113Z,30.98
2022-08-05T08:09:52.490Z,31.36
2022-08-05T08:15:02.561Z,30.98
2022-08-05T08:20:43.531Z,31.79
2022-08-05T08:25:58.921Z,31.39
2022-08-05T08:31:04.351Z,30.24
2022-08-05T08:36:29.451Z,30.41
2022-08-05T08:41:51.873Z,30.25
2022-08-05T08:47:22.351Z,31.11
2022-08-05T08:52:38.444Z,30.75
2022-08-05T08:57:48.536Z,30.94
2022-08-05T09:03:09.470Z,30.83
2022-08-05T09:08:14.397Z,31.38
2022-08-05T09:13:23.609Z,31.31
2022-08-05T09:18:31.446Z,31.79
2022-08-05T09:23:43.608Z,31.45
2022-08-05T09:28:52.691Z,32.49
2022-08-05T09:34:02.823Z,31.67
2022-08-05T09:39:18.239Z,31.82
2022-08-05T09:44:37.873Z,32.76
2022-08-05T09:50:00.909Z,31.90
2022-08-05T09:55:56.197Z,31.13
2022-08-05T10:00:38.786Z,31.72
2022-08-05T10:05:48.946Z,31.39
2022-08-05T10:10:55.004Z,31.71
2022-08-05T10:16:00.852Z,31.93
2022-08-05T10:21:15.553Z,31.89
2022-08-05T10:26:31.532Z,32.39
2022-08-05T10:32:53.917Z,32.01
2022-08-05T10:37:05.234Z,32.34
2022-08-05T10:42:15.590Z,31.89
2022-08-05T10:47:26.756Z,32.13
2022-08-05T10:52:58.800Z,32.78
2022-08-05T10:58:11.661Z,32.58
2022-08-05T11:03:23.042Z,33.00
2022-08-05T11:08:37.962Z,32.95
2022-08-05T11:13:57.611Z,33.12
2022-08-05T11:20:10.797Z,32.77
2022-08-05T11:26:04.941Z,33.26
2022-08-05T11:31:53.990Z,33.31
2022-08-05T11:36:54.067Z,33.19
2022-08-05T11:42:04.260Z,32.30
2022-08-05T11:47:15.172Z,32.59
2022-08-05T11:52:31.127Z,33.14
2022-08-05T11:58:08.237Z,33.03
2022-08-05T12:03:29.610Z,33.86
2022-08-05T12:08:48.022Z,33.85
2022-08-05T12:14:04.111Z,34.23
2022-08-05T12:20:26.979Z,34.40
2022-08-05T12:24:49.565Z,33.51
2022-08-05T12:30:03.589Z,34.21
2022-08-05T12:35:14.060Z,34.70
2022-08-05T12:40:30.992Z,34.67
2022-08-05T12:45:48.350Z,34.98
2022-08-05T12:51:21.790Z,34.23
2022-08-05T12:56:47.053Z,33.71
2022-08-05T13:02:07.162Z,34.63
2022-08-05T13:07:16.185Z,34.45
2022-08-05T13:12:28.522Z,35.12
2022-08-05T13:17:41.780Z,34.86
2022-08-05T13:22:52.145Z,34.62
2022-08-05T13:27:59.797Z,35.12
2022-08-05T13:33:04.825Z,34.37
2022-08-05T13:38:15.729Z,34.39
2022-08-05T13:43:44.271Z,34.15
2022-08-05T13:48:58.834Z,34.31
2022-08-05T13:54:12.579Z,34.48
2022-08-05T13:59:24.778Z,34.65
2022-08-05T14:04:50.085Z,34.42
2022-08-05T14:09:56.391Z,34.48
2022-08-05T14:15:05.915Z,34.58
2022-08-05T14:20:29.715Z,33.98
2022-08-05T14:25:34.764Z,34.58
2022-08-05T14:30:53.535Z,34.72
2022-08-05T14:35:58.515Z,34.41
2022-08-05T14:41:10.057Z,34.76
2022-08-05T14:46:17.645Z,34.32
2022-08-05T14:51:25.009Z,34.75
2022-08-05T14:56:35.829Z,34.29
2022-08-05T15:01:48.970Z,34.37
2022-08-05T15:06:54.672Z,34.43
2022-08-05T15:12:00.327Z,34.11
2022-08-05T15:17:44.503Z,34.20
2022-08-05T15:22:39.055Z,34.02
2022-08-05T15:27:52.307Z,33.84
2022-08-05T15:33:00.073Z,34.10
2022-08-05T15:38:33.253Z,34.04
2022-08-05T15:43:31.895Z,33.95
2022-08-05T15:48:58.006Z,33.48
2022-08-05T15:54:08.447Z,33.61
2022-08-05T15:59:21.774Z,33.08
2022-08-05T16:04:29.995Z,33.64
2022-08-05T16:09:36.407Z,33.96
2022-08-05T16:14:41.484Z,33.25
2022-08-05T16:20:05.322Z,33.49
2022-08-05T16:25:14.052Z,33.05
2022-08-05T16:30:26.097Z,33.15
2022-08-05T16:35:42.086Z,33.68
2022-08-05T16:40:55.028Z,33.31
2022-08-05T16:46:23.716Z,33.44
2022-08-05T16:51:50.237Z,33.03
2022-08-05T16:56:56.281Z,33.25
2022-08-05T17:02:01.166Z,32.38
2022-08-05T17:07:11.497Z,32.50
2022-08-05T17:12:16.706Z,32.44
2022-08-05T17:18:02.201Z,32.30
2022-08-05T17:23:00.839Z,32.39
2022-08-05T17:28:09.320Z,31.91
2022-08-05T17:33:15.112Z,31.53
2022-08-05T17:38:22.751Z,30.97
2022-08-05T17:43:50.384Z,31.09
2022-08-05T17:48:55.550Z,30.79
2022-08-05T17:54:05.288Z,30.36
2022-08-05T17:59:10.528Z,30.52
2022-08-05T18:04:15.503Z,29.49
2022-08-05T18:10:00.465Z,28.73
2022-08-05T18:14:54.364Z,28.21
2022-08-05T18:19:59.368Z,27.53
2022-08-05T18:25:08.595Z,27.06
2022-08-05T18:30:17.573Z,26.70
2022-08-05T18:35:28.389Z,26.50
2022-08-05T18:41:57.641Z,26.26
2022-08-05T18:46:15.901Z,27.13
2022-08-05T18:52:03.212Z,26.35
2022-08-05T18:57:06.553Z,26.10
2022-08-05T19:02:27.708Z,26.14
2022-08-05T19:07:45.191Z,26.00
2022-08-05T19:12:53.009Z,25.33
2022-08-05T19:18:10.334Z,25.17
2022-08-05T19:24:05.996Z,24.79
2022-08-05T19:28:44.072Z,25.29
2022-08-05T19:33:56.238Z,24.74
2022-08-05T19:39:02.245Z,25.15
2022-08-05T19:44:13.797Z,24.12
2022-08-05T19:49:19.118Z,23.83
2022-08-05T19:54:31.304Z,23.73
2022-08-05T19:59:55.225Z,23.70
2022-08-05T20:05:09.456Z,23.93
2022-08-05T20:10:14.817Z,23.45
2022-08-05T20:15:52.265Z,23.17
2022-08-05T20:20:50.072Z,23.43
2022-08-05T20:25:55.185Z,23.20
2022-08-05T20:31:02.692Z,22.95
2022-08-05T20:36:07.818Z,22.86
2022-08-05T20:41:23.674Z,22.79
2022-08-05T20:46:32.420Z,23.11
2022-08-05T20:51:37.321Z,22.63
2022-08-05T20:56:43.575Z,23.07
2022-08-05T21:01:52.118Z,22.65
2022-08-05T21:06:57.102Z,22.68
2022-08-05T21:12:09.458Z,22.19
2022-08-05T21:17:18.755Z,21.82
2022-08-05T21:22:26.879Z,21.58
2022-08-05T21:27:38.783Z,21.48
2022-08-05T21:32:46.591Z,20.97
2022-08-05T21:37:53.076Z,20.91
2022-08-05T21:42:59.026Z,21.08
2022-08-05T21:48:08.098Z,20.82
2022-08-05T21:53:16.694Z,20.65
2022-08-05T21:58:31.484Z,20.88
2022-08-05T22:03:51.970Z,20.93
2022-08-05T22:08:58.232Z,20.51
2022-08-05T22:14:33.326Z,20.45
2022-08-05T22:20:01.265Z,20.50
2022-08-05T22:25:20.986Z,20.74
2022-08-05T22:30:35.866Z,20.53
2022-08-05T22:35:49.304Z,20.60
2022-08-05T22:40:54.894Z,20.54
2022-08-05T22:46:00.302Z,20.04
2022-08-05T22:51:22.365Z,20.01
2022-08-05T22:56:30.693Z,19.84
2022-08-05T23:02:03.887Z,19.76
2022-08-05T23:07:04.393Z,19.96
2022-08-05T23:12:12.272Z,19.83
2022-08-05T23:17:34.656Z,19.57
2022-08-05T23:22:47.612Z,19.48
2022-08-05T23:28:00.205Z,19.38
2022-08-05T23:33:05.883Z,18.99
2022-08-05T23:38:26.706Z,19.30
2022-08-05T23:44:04.614Z,18.96
2022-08-05T23:48:59.667Z,19.62
2022-08-05T23:54:10.708Z,19.22
2022-08-05T23:59:16.314Z,19.51
